Time;durP1;ratioP1;P1;durP2;ratioP2;P2;SDS_P1;SDS_P2;PMS_P1;PMS_P2;Temp;Humidity;BMP_temperature;BMP_pressure;BME280_temperature;BME280_humidity;BME280_pressure;Samples;Min_cycle;Max_cycle;Signal;HPM_P1;HPM_P2
2021/05/11 00:00:05;;;;;;;6.33;3.80;;;;;;;5.87;64.47;100302.45;1750321;80;21202;-52
2021/05/11 00:02:34;;;;;;;3.93;2.67;;;;;;;5.83;64.30;100304.78;1751170;80;22307;-52
2021/05/11 00:05:01;;;;;;;4.13;2.30;;;;;;;5.82;64.29;100300.80;1755804;80;21146;-53
2021/05/11 00:07:29;;;;;;;4.73;2.03;;;;;;;5.81;64.30;100299.92;1753119;80;21118;-53
2021/05/11 00:09:56;;;;;;;6.70;3.80;;;;;;;5.81;64.37;100297.25;1751068;80;21182;-51
2021/05/11 00:12:25;;;;;;;5.87;3.13;;;;;;;5.78;64.39;100290.66;1752047;80;21630;-52
2021/05/11 00:14:53;;;;;;;7.20;3.53;;;;;;;5.74;64.38;100288.94;1751101;80;21806;-53
2021/05/11 00:17:20;;;;;;;6.93;3.50;;;;;;;5.69;64.36;100286.38;1754147;80;21158;-51
2021/05/11 00:19:48;;;;;;;7.43;3.67;;;;;;;5.64;64.33;100286.02;1753699;80;21199;-52
2021/05/11 00:22:15;;;;;;;5.23;3.67;;;;;;;5.57;64.44;100287.06;1749652;80;21171;-51
2021/05/11 00:24:42;;;;;;;7.60;2.63;;;;;;;5.51;64.50;100277.84;1752203;80;21764;-51
2021/05/11 00:27:09;;;;;;;3.53;2.27;;;;;;;5.43;64.80;100278.44;1752351;80;21248;-53
2021/05/11 00:29:36;;;;;;;7.43;2.60;;;;;;;5.36;65.00;100278.14;1778793;79;21617;-53
2021/05/11 00:32:04;;;;;;;6.47;2.50;;;;;;;5.29;65.24;100274.23;1777899;79;21171;-51
2021/05/11 00:34:32;;;;;;;5.20;1.40;;;;;;;5.26;65.40;100282.31;1761997;79;21645;-51
2021/05/11 00:36:59;;;;;;;8.13;1.80;;;;;;;5.25;65.59;100280.55;1758865;79;21181;-51
2021/05/11 00:39:26;;;;;;;6.03;2.37;;;;;;;5.26;65.68;100273.42;1762685;79;21716;-53
2021/05/11 00:41:54;;;;;;;4.70;1.87;;;;;;;5.24;65.63;100269.44;1758774;79;21787;-52
2021/05/11 00:44:23;;;;;;;4.70;2.70;;;;;;;5.22;65.81;100275.70;1763654;79;21106;-51
2021/05/11 00:47:06;;;;;;;7.53;3.00;;;;;;;5.22;65.84;100269.03;1761581;79;21182;-52
2021/05/11 00:49:36;;;;;;;3.30;2.07;;;;;;;5.23;65.85;100265.00;1761888;79;21437;-52
2021/05/11 00:52:06;;;;;;;4.83;2.07;;;;;;;5.23;65.86;100272.13;1763776;79;21465;-52
2021/05/11 00:54:34;;;;;;;4.33;2.40;;;;;;;5.25;66.02;100272.54;1761287;80;21217;-51
2021/05/11 00:57:03;;;;;;;2.90;1.83;;;;;;;5.24;66.12;100266.77;1758880;79;21169;-51
2021/05/11 00:59:30;;;;;;;5.30;2.33;;;;;;;5.22;66.13;100275.25;1761716;79;21193;-52
2021/05/11 01:01:59;;;;;;;6.17;2.70;;;;;;;5.19;66.12;100274.45;1761928;79;21589;-51
2021/05/11 01:04:26;;;;;;;6.50;3.30;;;;;;;5.15;66.04;100264.72;1763439;79;21229;-51
2021/05/11 01:06:54;;;;;;;5.73;3.37;;;;;;;5.09;65.99;100267.51;1760493;79;21202;-50
2021/05/11 01:09:23;;;;;;;7.53;3.70;;;;;;;5.03;66.00;100264.92;1763737;79;21207;-51
2021/05/11 01:11:50;;;;;;;6.07;3.40;;;;;;;4.99;66.04;100268.58;1766835;79;21158;-50
2021/05/11 01:14:18;;;;;;;5.40;2.40;;;;;;;4.94;66.13;100265.97;1766837;79;21106;-50
2021/05/11 01:16:49;;;;;;;5.33;2.23;;;;;;;4.88;66.25;100260.74;1767374;79;21520;-52
2021/05/11 01:19:20;;;;;;;6.23;2.30;;;;;;;4.80;66.46;100264.88;1765543;79;21234;-50
2021/05/11 01:24:30;;;;;;;4.53;1.53;;;;;;;4.70;67.05;100263.72;1764017;79;22089;-52
2021/05/11 01:26:58;;;;;;;4.87;1.37;;;;;;;4.69;67.25;100261.95;1763396;79;21230;-52
2021/05/11 01:29:35;;;;;;;4.53;1.40;;;;;;;4.69;67.37;100254.83;1756068;80;21641;-52
2021/05/11 01:48:26;;;;;;;5.43;3.23;;;;;;;4.69;67.52;100260.17;1782149;78;21381;-52
2021/05/11 01:53:46;;;;;;;8.30;3.27;;;;;;;4.58;67.79;100265.27;1782660;79;21190;-52
2021/05/11 02:23:22;;;;;;;5.27;3.27;;;;;;;4.47;69.09;100257.42;1793084;77;21661;-52
2021/05/11 02:25:49;;;;;;;8.87;2.77;;;;;;;4.49;69.17;100259.62;1790434;77;20949;-52
2021/05/11 02:28:17;;;;;;;6.50;3.27;;;;;;;4.53;69.15;100262.20;1794706;77;21490;-52
2021/05/11 02:30:44;;;;;;;6.20;3.50;;;;;;;4.55;69.13;100263.06;1791845;77;22143;-53
2021/05/11 02:33:11;;;;;;;12.17;4.53;;;;;;;4.55;69.14;100262.19;1795860;77;21499;-52
2021/05/11 02:35:38;;;;;;;7.53;3.70;;;;;;;4.56;69.18;100266.16;1790770;77;21403;-52
2021/05/11 02:38:06;;;;;;;9.50;4.07;;;;;;;4.55;69.20;100269.73;1768280;77;21087;-52
2021/05/11 02:40:33;;;;;;;6.67;3.53;;;;;;;4.53;69.25;100271.98;1791125;77;21115;-52
2021/05/11 02:43:04;;;;;;;5.63;2.63;;;;;;;4.52;69.33;100270.22;1795606;77;21639;-52
2021/05/11 02:45:31;;;;;;;9.20;3.00;;;;;;;4.51;69.39;100265.78;1795138;77;21770;-52
2021/05/11 02:47:59;;;;;;;4.83;2.67;;;;;;;4.49;69.52;100267.17;1798898;77;21314;-52
2021/05/11 02:50:28;;;;;;;6.43;2.60;;;;;;;4.49;69.73;100262.29;1794829;77;21115;-52
2021/05/11 02:52:55;;;;;;;5.30;2.67;;;;;;;4.48;69.91;100262.73;1791911;77;21190;-52
2021/05/11 02:55:24;;;;;;;6.50;2.57;;;;;;;4.50;70.00;100258.72;1792296;77;21190;-52
2021/05/11 02:57:51;;;;;;;4.07;2.50;;;;;;;4.52;70.08;100255.10;1790462;77;21715;-52
2021/05/11 03:00:19;;;;;;;4.93;3.53;;;;;;;4.54;70.10;100263.97;1791235;77;21160;-52
2021/05/11 03:02:46;;;;;;;6.47;3.23;;;;;;;4.60;70.11;100254.09;1790632;77;21139;-52
2021/05/11 03:05:15;;;;;;;9.10;3.27;;;;;;;4.60;70.14;100256.31;1792812;77;21171;-51
2021/05/11 03:07:43;;;;;;;9.90;3.00;;;;;;;4.63;70.23;100256.72;1791507;77;21704;-52
2021/05/11 03:10:13;;;;;;;5.57;3.10;;;;;;;4.63;70.30;100254.94;1791900;77;21218;-52
2021/05/11 03:12:40;;;;;;;6.40;3.30;;;;;;;4.66;70.35;100252.69;1798028;77;21462;-52
2021/05/11 03:15:10;;;;;;;8.10;2.67;;;;;;;4.69;70.42;100245.95;1798705;77;21182;-51
2021/05/11 03:17:38;;;;;;;3.20;2.10;;;;;;;4.72;70.58;100249.91;1801911;77;21087;-52
2021/05/11 03:20:07;;;;;;;4.60;3.03;;;;;;;4.77;70.73;100254.70;1796990;77;21286;-51
2021/05/11 03:22:34;;;;;;;3.63;2.70;;;;;;;4.80;70.86;100246.21;1800313;77;21182;-51
2021/05/11 03:25:02;;;;;;;5.83;2.70;;;;;;;4.84;71.12;100244.38;1799733;77;21174;-52
2021/05/11 03:27:31;;;;;;;8.67;2.60;;;;;;;4.92;71.27;100243.80;1799041;77;21182;-52
2021/05/11 03:29:58;;;;;;;7.47;3.70;;;;;;;5.03;71.27;100243.58;1798257;77;21174;-51
2021/05/11 03:32:26;;;;;;;6.50;2.63;;;;;;;5.13;71.21;100233.17;1796472;77;21483;-52
2021/05/11 03:34:53;;;;;;;6.53;2.70;;;;;;;5.25;71.15;100236.95;1799735;77;21147;-52
2021/05/11 03:37:21;;;;;;;8.20;3.63;;;;;;;5.39;71.14;100239.35;1800880;77;21202;-52
2021/05/11 03:39:48;;;;;;;11.23;4.73;;;;;;;5.51;71.05;100233.78;1801817;77;21555;-52
2021/05/11 03:42:26;;;;;;;7.50;4.40;;;;;;;5.64;71.28;100237.95;1796945;77;21221;-51
2021/05/11 03:44:54;;;;;;;11.57;4.67;;;;;;;5.76;71.52;100236.38;1797778;77;21390;-51
2021/05/11 03:47:35;;;;;;;7.07;4.77;;;;;;;5.93;71.73;100224.02;1864213;74;26749;-52
2021/05/11 03:50:06;;;;;;;8.73;4.87;;;;;;;6.06;71.82;100225.49;1855762;74;28411;-52
2021/05/11 03:52:51;;;;;;;5.50;3.00;;;;;;;6.19;71.48;100219.43;1843227;76;21470;-52
2021/05/11 03:55:26;;;;;;;6.30;2.60;;;;;;;6.47;71.21;100213.83;1870268;75;26951;-52
2021/05/11 03:58:01;;;;;;;6.27;2.23;;;;;;;6.65;70.75;100217.39;1822355;76;27794;-53
2021/05/11 04:00:38;;;;;;;4.97;2.83;;;;;;;6.84;70.27;100223.16;1826866;76;26564;-52
2021/05/11 04:03:13;;;;;;;4.90;2.80;;;;;;;7.08;69.89;100223.86;1870742;75;26553;-52
2021/05/11 04:05:53;;;;;;;5.20;2.17;;;;;;;7.33;69.02;100220.05;1867974;75;26945;-53
2021/05/11 04:16:46;;;;;;;6.87;2.00;;;;;;;9.07;63.66;100212.84;1870027;75;27092;-52
2021/05/11 04:19:21;;;;;;;9.13;3.07;;;;;;;9.68;61.94;100213.33;1852594;75;27714;-52
2021/05/11 04:22:06;;;;;;;4.10;2.40;;;;;;;10.23;60.29;100220.18;1777428;78;21163;-52
2021/05/11 04:24:41;;;;;;;5.73;1.87;;;;;;;10.67;58.49;100218.86;1870751;75;27851;-52
2021/05/11 04:27:16;;;;;;;4.90;2.40;;;;;;;10.92;56.39;100213.73;1829730;75;23218;-52
2021/05/11 04:29:54;;;;;;;5.17;2.00;;;;;;;11.14;55.40;100217.75;1869568;75;23322;-52
2021/05/11 04:32:40;;;;;;;8.43;2.23;;;;;;;11.16;54.64;100220.36;1840446;76;21142;-52
2021/05/11 04:35:15;;;;;;;3.13;1.70;;;;;;;11.22;52.92;100212.03;1868341;75;22643;-52
2021/05/11 04:37:50;;;;;;;4.93;1.90;;;;;;;11.22;52.60;100214.25;1818089;76;22744;-53
2021/05/11 04:40:25;;;;;;;3.27;2.17;;;;;;;11.23;52.41;100212.41;1869410;75;22662;-53
2021/05/11 04:42:59;;;;;;;7.20;2.23;;;;;;;11.24;51.91;100206.95;1851214;74;22730;-52
2021/05/11 04:45:37;;;;;;;4.03;2.23;;;;;;;11.25;51.83;100203.32;1869813;75;22652;-53
2021/05/11 04:48:15;;;;;;;2.87;1.63;;;;;;;11.31;52.05;100203.05;1871437;75;22738;-53
2021/05/11 04:50:53;;;;;;;6.87;1.77;;;;;;;11.36;51.39;100198.34;1820987;75;22758;-52
2021/05/11 04:53:30;;;;;;;5.10;1.63;;;;;;;11.44;51.58;100198.00;1865488;75;22757;-53
2021/05/11 04:56:05;;;;;;;4.43;1.40;;;;;;;11.53;50.63;100196.24;1867683;75;22629;-52
2021/05/11 04:58:51;;;;;;;3.57;1.00;;;;;;;11.60;50.26;100196.83;1781771;78;21100;-52
2021/05/11 05:01:25;;;;;;;4.57;1.10;;;;;;;11.76;49.65;100201.96;1863928;74;22652;-52
2021/05/11 05:04:01;;;;;;;3.20;1.20;;;;;;;11.88;48.27;100194.66;1863741;74;22998;-53
2021/05/11 05:06:47;;;;;;;3.30;1.20;;;;;;;11.95;48.10;100197.95;1799353;77;21166;-52
2021/05/11 05:09:22;;;;;;;6.77;1.50;;;;;;;12.11;47.37;100194.45;1868916;75;22725;-52
2021/05/11 05:11:56;;;;;;;4.47;0.83;;;;;;;12.24;46.34;100194.75;1824872;75;22729;-52
2021/05/11 05:14:31;;;;;;;3.50;1.00;;;;;;;12.35;45.41;100190.16;1825339;76;23464;-52
2021/05/11 05:17:06;;;;;;;3.40;1.00;;;;;;;12.49;45.51;100188.56;1869249;75;22640;-52
2021/05/11 05:19:44;;;;;;;3.50;0.80;;;;;;;12.60;45.57;100182.61;1864234;74;22652;-53
2021/05/11 05:22:19;;;;;;;3.77;0.83;;;;;;;12.73;44.73;100177.48;1868188;75;22714;-52
2021/05/11 05:24:58;;;;;;;0.90;0.60;;;;;;;12.86;44.38;100175.42;1867310;75;22660;-51
2021/05/11 05:27:44;;;;;;;1.67;0.60;;;;;;;13.00;43.52;100172.04;1870724;75;22666;-52
2021/05/11 05:30:27;;;;;;;1.72;0.50;;;;;;;13.09;42.93;100176.97;1842266;76;21056;-52
2021/05/11 05:33:02;;;;;;;1.27;0.50;;;;;;;13.28;40.01;100167.91;1875426;74;23320;-53
2021/05/11 05:35:37;;;;;;;1.03;0.50;;;;;;;13.40;39.90;100169.97;1872194;74;22672;-53
2021/05/11 05:38:11;;;;;;;4.30;0.63;;;;;;;13.51;39.48;100159.47;1872214;74;22832;-52
2021/05/11 05:40:54;;;;;;;4.37;0.43;;;;;;;13.63;39.43;100163.72;1868557;74;22580;-52
2021/05/11 05:43:34;;;;;;;4.75;0.50;;;;;;;13.71;38.99;100159.72;1818023;77;21029;-53
2021/05/11 05:46:09;;;;;;;2.33;0.50;;;;;;;13.88;38.97;100163.72;1876909;74;22613;-53
2021/05/11 05:48:45;;;;;;;3.60;0.40;;;;;;;13.98;37.61;100166.32;1827890;76;23100;-53
2021/05/11 05:51:30;;;;;;;2.30;0.40;;;;;;;14.03;37.08;100166.08;1800060;77;20996;-52
2021/05/11 05:54:06;;;;;;;0.80;0.50;;;;;;;14.17;35.67;100166.17;1868214;74;22571;-53
2021/05/11 05:56:40;;;;;;;1.57;0.40;;;;;;;14.22;35.84;100163.59;1873495;74;22727;-53
2021/05/11 05:59:26;;;;;;;4.78;0.50;;;;;;;14.26;36.23;100162.47;1809445;78;21170;-52
2021/05/11 06:02:02;;;;;;;2.57;0.80;;;;;;;14.39;36.19;100155.89;1867679;75;22651;-51
2021/05/11 06:04:38;;;;;;;2.73;0.50;;;;;;;14.50;35.89;100155.28;1860449;74;23405;-53
2021/05/11 06:07:23;;;;;;;2.98;0.62;;;;;;;14.54;36.41;100154.16;1809128;76;21075;-53
2021/05/11 06:09:58;;;;;;;3.80;0.50;;;;;;;14.67;36.51;100156.52;1842040;76;22790;-53
2021/05/11 06:12:38;;;;;;;2.80;0.50;;;;;;;14.76;34.59;100147.86;1873372;74;22655;-51
2021/05/11 06:17:57;;;;;;;4.37;0.80;;;;;;;14.85;33.57;100151.38;1855923;75;21043;-52
2021/05/11 06:20:32;;;;;;;3.33;0.50;;;;;;;14.97;33.47;100145.20;1871502;74;22641;-52
2021/05/11 06:23:07;;;;;;;2.03;0.50;;;;;;;15.03;33.75;100138.08;1827271;75;22713;-53
2021/05/11 06:25:45;;;;;;;4.07;0.50;;;;;;;15.11;32.34;100138.49;1870696;75;23100;-51
2021/05/11 06:28:20;;;;;;;1.93;0.60;;;;;;;15.19;32.44;100137.14;1828193;76;22787;-53
2021/05/11 06:31:05;;;;;;;3.20;0.65;;;;;;;15.20;32.76;100141.13;1796688;77;21423;-52
2021/05/11 06:33:40;;;;;;;2.00;0.50;;;;;;;15.32;33.33;100136.28;1827776;76;23353;-52
2021/05/11 06:36:15;;;;;;;3.07;0.50;;;;;;;15.42;33.74;100134.76;1870356;75;22585;-53
2021/05/11 06:38:53;;;;;;;3.83;0.60;;;;;;;15.51;32.23;100138.25;1828281;76;23124;-53
2021/05/11 06:41:28;;;;;;;4.10;0.50;;;;;;;15.61;32.89;100142.66;1872715;75;23865;-53
2021/05/11 06:44:08;;;;;;;2.53;0.50;;;;;;;15.72;32.13;100146.06;1868450;75;22613;-52
2021/05/11 06:47:09;;;;;;;2.93;0.53;;;;;;;15.79;32.21;100142.86;1860210;75;28496;-53
2021/05/11 06:55:13;;;;;;;2.37;0.50;;;;;;;16.21;29.21;100129.72;1803843;76;27766;-51
2021/05/11 06:57:56;;;;;;;4.50;0.50;;;;;;;16.29;29.68;100138.72;1809068;77;20941;-51
2021/05/11 07:00:31;;;;;;;0.60;0.20;;;;;;;16.42;28.62;100124.70;1868790;75;22690;-52
2021/05/11 07:03:05;;;;;;;0.63;0.30;;;;;;;16.45;29.03;100131.78;1824577;76;22669;-51
2021/05/11 07:05:43;;;;;;;1.20;0.30;;;;;;;16.50;28.47;100135.09;1864792;74;22755;-52
2021/05/11 07:08:40;;;;;;;1.20;0.30;;;;;;;16.51;28.41;100128.65;1838115;75;21721;-53
2021/05/11 07:13:53;;;;;;;1.27;0.30;;;;;;;16.62;27.79;100118.84;1869345;75;23635;-51
2021/05/11 07:16:28;;;;;;;0.40;0.30;;;;;;;16.64;26.80;100120.11;1859623;74;22774;-53
2021/05/11 07:19:03;;;;;;;1.00;0.30;;;;;;;16.69;26.42;100125.22;1870785;75;22742;-50
2021/05/11 07:21:38;;;;;;;0.73;0.30;;;;;;;16.74;26.41;100121.72;1861494;75;22647;-53
2021/05/11 07:24:27;;;;;;;0.40;0.30;;;;;;;16.73;26.65;100120.84;1839930;76;21187;-52
2021/05/11 07:29:56;;;;;;;1.07;0.30;;;;;;;16.95;26.77;100117.04;1882697;75;22715;-53
2021/05/11 07:32:29;;;;;;;2.20;0.40;;;;;;;17.03;25.97;100116.02;1866178;74;22672;-51
2021/05/11 07:35:06;;;;;;;1.00;0.43;;;;;;;17.04;25.41;100123.69;1864879;75;23059;-51
2021/05/11 07:37:51;;;;;;;1.47;0.40;;;;;;;16.98;26.31;100125.48;1848184;76;21120;-53
2021/05/11 07:40:26;;;;;;;1.43;0.40;;;;;;;17.02;26.57;100124.28;1834242;76;22668;-51
2021/05/11 07:43:01;;;;;;;0.40;0.30;;;;;;;17.03;26.98;100120.59;1834109;76;22671;-51
2021/05/11 07:46:08;;;;;;;1.43;0.33;;;;;;;17.07;27.16;100117.18;1828365;76;22686;-50
2021/05/11 08:17:09;;;;;;;1.25;0.30;;;;;;;17.57;27.61;100041.50;1775678;77;21075;-53
2021/05/11 08:28:14;;;;;;;0.63;0.30;;;;;;;17.88;28.00;100054.63;1872134;75;23781;-52
2021/05/11 08:30:49;;;;;;;0.50;0.40;;;;;;;17.95;28.13;100060.52;1867932;75;23539;-53
2021/05/11 08:33:26;;;;;;;2.83;0.47;;;;;;;18.00;28.31;100056.47;1870021;75;22803;-51
2021/05/11 08:36:01;;;;;;;5.50;0.50;;;;;;;18.08;28.22;100051.31;1828429;76;23768;-51
2021/05/11 08:38:36;;;;;;;0.90;0.30;;;;;;;18.15;28.49;100045.78;1870920;75;22773;-51
2021/05/11 08:41:11;;;;;;;2.47;0.30;;;;;;;18.25;28.83;100049.19;1819485;76;22678;-51
2021/05/11 08:43:48;;;;;;;1.73;0.30;;;;;;;18.35;28.44;100040.20;1824139;76;22866;-52
2021/05/11 08:46:26;;;;;;;0.40;0.30;;;;;;;18.42;28.17;100029.21;1828315;75;23680;-51
2021/05/11 08:49:05;;;;;;;2.30;0.33;;;;;;;18.48;28.29;100029.22;1822541;76;23769;-51
2021/05/11 08:54:49;;;;;;;1.63;0.40;;;;;;;18.51;28.08;100031.73;1873060;75;23812;-51
2021/05/11 09:06:27;;;;;;;0.57;0.40;;;;;;;18.80;28.18;100021.31;1818787;76;25232;-51
2021/05/11 09:09:20;;;;;;;2.95;0.37;;;;;;;18.79;28.94;100019.61;1791712;77;21604;-53
2021/05/11 09:23:53;;;;;;;1.05;0.40;;;;;;;19.06;28.67;99994.72;1848136;76;20935;-53
2021/05/11 09:29:49;;;;;;;1.73;0.40;;;;;;;19.27;29.08;99994.38;1865259;74;27679;-52
2021/05/11 09:59:35;;;;;;;0.50;0.30;;;;;;;19.65;29.64;99958.03;1826627;76;27983;-51
2021/05/11 10:48:38;;;;;;;2.27;0.30;;;;;;;20.77;29.47;99902.93;1864286;75;27376;-52
2021/05/11 10:51:20;;;;;;;1.75;0.40;;;;;;;20.80;29.64;99893.59;1853493;75;28350;-52
2021/05/11 10:54:08;;;;;;;0.45;0.30;;;;;;;20.84;29.79;99890.97;1776432;78;22327;-53
2021/05/11 10:56:45;;;;;;;3.00;0.40;;;;;;;20.97;29.69;99889.73;1854306;75;29486;-52
2021/05/11 11:05:02;;;;;;;1.87;0.40;;;;;;;21.13;29.48;99891.46;1867286;75;29139;-52
2021/05/11 11:07:38;;;;;;;2.07;0.40;;;;;;;21.14;29.82;99878.64;1856831;75;28323;-52
2021/05/11 11:10:13;;;;;;;1.57;0.20;;;;;;;21.23;29.53;99886.56;1823498;75;28966;-51
2021/05/11 11:12:48;;;;;;;0.33;0.25;;;;;;;21.27;30.16;99875.19;1868281;74;28856;-52
2021/05/11 11:15:23;;;;;;;2.83;0.25;;;;;;;21.31;30.30;99877.16;1870164;75;28197;-54
2021/05/11 11:18:02;;;;;;;2.17;0.20;;;;;;;21.33;30.46;99875.15;1866990;75;28706;-52
2021/05/11 11:20:44;;;;;;;3.27;0.30;;;;;;;21.35;30.23;99875.35;1806324;76;27732;-52
2021/05/11 11:26:33;;;;;;;0.70;0.30;;;;;;;21.64;30.21;99867.72;1810269;76;28177;-51
2021/05/11 11:29:20;;;;;;;1.70;0.20;;;;;;;21.66;30.85;99865.72;1783648;77;20957;-51
2021/05/11 11:31:56;;;;;;;2.40;0.30;;;;;;;21.75;30.57;99856.14;1851866;75;29739;-52
2021/05/11 11:34:33;;;;;;;1.40;0.20;;;;;;;21.86;30.17;99858.73;1822079;76;28296;-51
2021/05/11 11:37:12;;;;;;;1.47;0.20;;;;;;;21.92;29.99;99850.97;1870248;75;28305;-52
2021/05/11 11:39:50;;;;;;;2.02;0.30;;;;;;;21.91;29.65;99847.36;1871450;75;28280;-52
2021/05/11 11:42:42;;;;;;;0.45;0.20;;;;;;;21.87;30.22;99847.27;1846724;76;21273;-51
2021/05/11 11:45:26;;;;;;;0.95;0.30;;;;;;;21.92;29.98;99842.24;1866143;75;28233;-52
2021/05/11 11:48:03;;;;;;;1.67;0.30;;;;;;;21.93;30.80;99840.37;1866428;75;28251;-52
2021/05/11 11:50:55;;;;;;;1.00;0.20;;;;;;;21.94;30.04;99847.58;1848419;76;21450;-54
2021/05/11 11:53:34;;;;;;;3.77;0.30;;;;;;;22.02;30.11;99839.03;1867981;75;28220;-53
2021/05/11 11:56:36;;;;;;;3.33;0.40;;;;;;;22.04;29.66;99830.64;1839448;74;28258;-51
2021/05/11 11:59:14;;;;;;;0.80;0.20;;;;;;;22.01;30.38;99839.17;1829467;76;21048;-54
2021/05/11 12:02:00;;;;;;;3.20;0.30;;;;;;;22.10;30.36;99826.84;1851160;74;28814;-52
2021/05/11 12:04:36;;;;;;;1.80;0.23;;;;;;;22.22;30.20;99818.80;1871118;75;28237;-52
2021/05/11 12:07:28;;;;;;;3.25;0.30;;;;;;;22.27;30.48;99821.12;1844278;76;21761;-51
2021/05/11 12:10:05;;;;;;;4.90;0.30;;;;;;;22.36;29.61;99822.98;1874740;75;28385;-52
2021/05/11 12:12:40;;;;;;;0.80;0.28;;;;;;;22.39;29.95;99819.06;1876310;75;28191;-52
2021/05/11 12:15:26;;;;;;;2.40;0.30;;;;;;;22.35;30.33;99827.23;1779866;78;21157;-52
2021/05/11 12:20:44;;;;;;;1.35;0.30;;;;;;;22.45;30.05;99823.47;1867812;75;29331;-52
2021/05/11 12:23:29;;;;;;;5.97;0.82;;;;;;;22.44;30.21;99825.85;1837653;76;21503;-53
2021/05/11 12:26:05;;;;;;;1.07;0.28;;;;;;;22.50;29.90;99828.50;1861065;74;28807;-52
2021/05/11 12:28:44;;;;;;;2.80;0.40;;;;;;;22.51;29.20;99817.39;1802990;77;28422;-52
2021/05/11 12:31:20;;;;;;;1.02;0.20;;;;;;;22.54;29.71;99816.23;1817692;76;28246;-52
2021/05/11 12:33:55;;;;;;;1.10;0.25;;;;;;;22.56;29.87;99815.55;1853229;75;27882;-52
2021/05/11 12:36:49;;;;;;;3.83;0.20;;;;;;;22.59;29.95;99813.89;1750635;80;21621;-51
2021/05/11 12:39:47;;;;;;;4.37;0.30;;;;;;;22.69;29.27;99807.02;1866439;74;28495;-52
2021/05/11 12:42:24;;;;;;;0.70;0.25;;;;;;;22.69;30.22;99805.64;1870158;75;28760;-52
2021/05/11 12:45:16;;;;;;;1.85;0.20;;;;;;;22.63;29.32;99809.83;1839454;76;21519;-51
2021/05/11 12:48:02;;;;;;;1.50;0.30;;;;;;;22.61;29.74;99789.42;1824115;77;28240;-54
2021/05/11 12:50:40;;;;;;;2.33;0.20;;;;;;;22.61;29.30;99799.03;1867557;75;28286;-52
2021/05/11 12:53:39;;;;;;;2.35;0.20;;;;;;;22.55;29.66;99795.48;1835599;76;21166;-54
2021/05/11 13:25:42;;;;;;;1.65;0.20;;;;;;;22.71;30.76;99765.20;1838963;76;21031;-53
2021/05/11 13:28:25;;;;;;;2.47;0.30;;;;;;;22.79;30.13;99759.86;1843266;74;27637;-52
2021/05/11 13:31:02;;;;;;;1.60;0.30;;;;;;;22.86;30.29;99762.34;1844024;74;27747;-52
2021/05/11 13:33:50;;;;;;;1.60;0.20;;;;;;;22.90;29.82;99761.01;1837446;76;22360;-53
2021/05/11 13:36:21;;;;;;;0.90;0.30;;;;;;;22.96;29.73;99761.29;1839685;74;27681;-52
2021/05/11 13:38:56;;;;;;;0.82;0.62;;;;;;;22.99;29.19;99746.38;1843784;76;28314;-52
2021/05/11 13:41:31;;;;;;;5.00;0.23;;;;;;;23.02;29.64;99748.83;1819747;76;28280;-52
2021/05/11 13:44:07;;;;;;;2.83;0.53;;;;;;;23.00;29.79;99749.48;1820554;75;28239;-52
2021/05/11 13:46:41;;;;;;;1.72;0.20;;;;;;;22.99;29.47;99742.26;1868772;75;28514;-52
2021/05/11 13:49:18;;;;;;;1.52;0.25;;;;;;;22.97;29.48;99738.79;1822686;75;28309;-52
2021/05/11 13:52:04;;;;;;;2.95;0.40;;;;;;;22.92;29.89;99742.52;1793214;77;21041;-52
2021/05/11 13:54:39;;;;;;;3.87;0.30;;;;;;;22.97;29.61;99725.94;1868145;75;28384;-52
2021/05/11 14:02:56;;;;;;;0.40;0.20;;;;;;;23.05;29.84;99727.94;1867776;75;28223;-52
2021/05/11 14:05:31;;;;;;;2.98;0.20;;;;;;;23.06;29.57;99722.77;1817558;76;28184;-52
2021/05/11 14:08:08;;;;;;;3.90;0.20;;;;;;;23.06;29.89;99720.03;1867935;75;28208;-52
2021/05/11 14:10:46;;;;;;;7.37;0.30;;;;;;;23.11;29.73;99723.70;1861460;74;28327;-52
2021/05/11 14:13:21;;;;;;;3.30;0.30;;;;;;;23.14;29.87;99726.16;1872799;75;28734;-52
2021/05/11 14:15:56;;;;;;;1.37;0.30;;;;;;;23.15;29.26;99722.36;1870763;75;28306;-52
2021/05/11 14:18:31;;;;;;;2.05;0.40;;;;;;;23.13;29.53;99718.42;1870918;75;28488;-53
2021/05/11 14:21:06;;;;;;;1.27;0.20;;;;;;;23.12;30.25;99715.83;1867906;75;28836;-52
2021/05/11 14:23:41;;;;;;;3.42;0.65;;;;;;;23.14;29.86;99723.41;1862175;74;28761;-53
2021/05/11 14:26:16;;;;;;;1.22;0.20;;;;;;;23.15;29.32;99710.00;1820993;76;29397;-52
2021/05/11 14:29:02;;;;;;;1.50;0.30;;;;;;;23.10;29.46;99720.09;1790485;77;21049;-52
2021/05/11 14:31:37;;;;;;;1.57;0.30;;;;;;;23.14;29.67;99713.25;1824644;75;28221;-51
2021/05/11 14:34:13;;;;;;;2.80;0.30;;;;;;;23.14;29.78;99713.25;1870631;75;28261;-52
2021/05/11 14:36:58;;;;;;;0.93;0.40;;;;;;;23.10;29.39;99715.11;1839837;76;21451;-52
2021/05/11 14:39:33;;;;;;;1.32;0.20;;;;;;;23.14;29.57;99712.42;1822331;76;28250;-52
2021/05/11 14:42:28;;;;;;;0.75;0.60;;;;;;;23.17;29.73;99710.21;1845350;75;28345;-52
2021/05/11 14:45:04;;;;;;;0.45;0.20;;;;;;;23.18;29.88;99700.09;1866206;75;28217;-52
2021/05/11 14:47:50;;;;;;;3.02;0.35;;;;;;;23.17;29.92;99703.34;1846752;76;21028;-52
2021/05/11 14:50:25;;;;;;;4.00;0.30;;;;;;;23.23;30.10;99705.97;1869475;75;28192;-52
2021/05/11 14:53:00;;;;;;;7.25;0.30;;;;;;;23.25;30.25;99695.70;1870257;75;28182;-54
2021/05/11 14:55:46;;;;;;;1.57;0.30;;;;;;;23.23;29.96;99701.34;1783384;78;21170;-54
2021/05/11 14:58:22;;;;;;;3.30;0.30;;;;;;;23.26;30.27;99701.55;1864930;75;29594;-52
2021/05/11 15:00:56;;;;;;;3.72;0.30;;;;;;;23.25;30.00;99696.56;1866247;75;28919;-51
2021/05/11 15:03:42;;;;;;;1.50;0.40;;;;;;;23.21;29.42;99696.55;1802447;78;21147;-52
2021/05/11 15:06:17;;;;;;;2.05;0.23;;;;;;;23.23;29.58;99690.87;1861551;74;28600;-51
2021/05/11 15:08:52;;;;;;;3.42;0.30;;;;;;;23.20;29.83;99689.32;1871169;75;28173;-52
2021/05/11 15:11:26;;;;;;;5.75;0.40;;;;;;;23.20;29.43;99679.70;1834089;75;28313;-52
2021/05/11 15:14:02;;;;;;;5.30;0.28;;;;;;;23.20;29.84;99689.83;1867372;75;28736;-52
2021/05/11 15:16:38;;;;;;;3.65;0.40;;;;;;;23.18;29.85;99687.73;1870101;75;28185;-54
2021/05/11 15:19:24;;;;;;;4.00;0.25;;;;;;;23.13;29.74;99686.84;1842664;76;21139;-54
2021/05/11 15:21:58;;;;;;;4.80;0.30;;;;;;;23.16;29.90;99682.91;1869751;75;28710;-51
2021/05/11 15:24:35;;;;;;;0.78;0.20;;;;;;;23.13;30.07;99681.36;1822299;76;28535;-53
2021/05/11 15:27:22;;;;;;;4.53;0.30;;;;;;;23.09;30.09;99675.80;1826048;77;21047;-52
2021/05/11 15:29:58;;;;;;;1.82;0.30;;;;;;;23.13;30.43;99672.25;1868199;75;28197;-52
2021/05/11 15:32:56;;;;;;;3.55;0.30;;;;;;;23.13;30.03;99677.75;1804123;76;38052;-51
2021/05/11 15:35:35;;;;;;;2.87;0.40;;;;;;;23.19;30.56;99675.23;1865440;75;28323;-53
2021/05/11 15:38:10;;;;;;;2.55;0.50;;;;;;;23.22;29.79;99674.90;1868988;75;28504;-52
2021/05/11 15:40:56;;;;;;;5.20;0.50;;;;;;;23.18;30.41;99682.25;1838543;76;21185;-53
2021/05/11 15:43:30;;;;;;;3.62;0.60;;;;;;;23.21;30.26;99676.45;1822940;75;28574;-54
2021/05/11 15:46:06;;;;;;;0.78;0.60;;;;;;;23.19;30.58;99684.84;1874438;75;28446;-51
2021/05/11 15:48:43;;;;;;;1.67;0.98;;;;;;;23.16;30.66;99678.28;1820700;76;28292;-53
2021/05/11 15:51:17;;;;;;;2.15;0.40;;;;;;;23.17;30.57;99681.38;1851974;75;27704;-52
2021/05/11 15:54:03;;;;;;;2.30;0.53;;;;;;;23.15;30.73;99676.55;1840350;76;21436;-52
2021/05/11 15:56:38;;;;;;;1.50;0.78;;;;;;;23.19;30.42;99683.47;1818954;76;28886;-52
2021/05/11 15:59:13;;;;;;;3.15;0.40;;;;;;;23.16;30.21;99670.04;1869342;75;28844;-51
2021/05/11 16:01:48;;;;;;;1.12;0.50;;;;;;;23.13;30.66;99669.00;1819083;75;28285;-50
2021/05/11 16:04:23;;;;;;;3.70;0.70;;;;;;;23.10;31.20;99677.54;1860657;74;28222;-50
2021/05/11 16:07:12;;;;;;;5.70;0.40;;;;;;;23.03;31.24;99670.08;1830065;75;21444;-50
2021/05/11 16:09:45;;;;;;;2.40;0.40;;;;;;;23.03;30.86;99659.10;1851507;74;27732;-50
2021/05/11 16:12:20;;;;;;;4.30;0.40;;;;;;;23.04;31.55;99666.33;1871745;75;28203;-49
2021/05/11 16:15:18;;;;;;;2.98;0.35;;;;;;;23.00;31.43;99663.88;1781830;78;21577;-52
2021/05/11 16:17:52;;;;;;;2.37;0.30;;;;;;;22.99;31.52;99661.28;1869432;75;28194;-54
2021/05/11 16:20:27;;;;;;;4.72;0.53;;;;;;;22.94;31.63;99665.02;1819908;75;28182;-50
2021/05/11 16:23:01;;;;;;;3.80;0.30;;;;;;;22.89;31.54;99656.36;1823908;75;28261;-52
2021/05/11 16:25:38;;;;;;;2.25;0.40;;;;;;;22.86;31.81;99656.69;1869660;75;28190;-50
2021/05/11 16:28:23;;;;;;;0.88;0.37;;;;;;;22.76;31.79;99661.37;1813463;78;20933;-50